Time;durP1;ratioP1;P1;durP2;ratioP2;P2;SDS_P1;SDS_P2;PMS_P1;PMS_P2;Temp;Humidity;BMP_temperature;BMP_pressure;BME280_temperature;BME280_humidity;BME280_pressure;Samples;Min_cycle;Max_cycle;Signal;HPM_P1;HPM_P2
2021/12/19 00:00:12;;;;;;;28.70;17.87;;;7.00;8.00;;;;;;5063416;28;21569;-59
2021/12/19 00:10:40;;;;;;;26.73;17.43;;;7.00;67.60;;;;;;5079280;28;20194;-59
2021/12/19 00:13:08;;;;;;;23.70;16.93;;;7.00;13.90;;;;;;5097744;27;20206;-60
2021/12/19 00:15:35;;;;;;;24.00;17.17;;;7.00;1.00;;;;;;5079042;28;20190;-60
2021/12/19 00:18:02;;;;;;;29.20;18.77;;;7.00;1.00;;;;;;5079831;28;20556;-61
2021/12/19 00:20:29;;;;;;;27.80;17.43;;;7.10;1.00;;;;;;5078055;28;20580;-60
2021/12/19 00:23:17;;;;;;;23.27;16.03;;;7.10;1.00;;;;;;5078226;28;20861;-61
2021/12/19 00:25:44;;;;;;;23.17;17.33;;;7.10;1.00;;;;;;5079042;28;20217;-58
2021/12/19 00:28:11;;;;;;;21.67;16.33;;;7.10;1.00;;;;;;5081488;28;20201;-58
2021/12/19 00:30:38;;;;;;;25.13;17.83;;;7.10;1.00;;;;;;5079940;28;20954;-59
2021/12/19 00:33:05;;;;;;;23.37;16.77;;;7.10;99.90;;;;;;5074875;28;20197;-60
2021/12/19 00:35:32;;;;;;;27.47;17.27;;;7.10;99.90;;;;;;5075992;28;20194;-61
2021/12/19 00:37:59;;;;;;;23.77;16.93;;;7.10;99.90;;;;;;5081507;28;20221;-61
2021/12/19 00:40:27;;;;;;;22.87;17.20;;;7.10;99.90;;;;;;5082188;28;20206;-61
2021/12/19 00:43:03;;;;;;;25.63;16.97;;;7.10;99.90;;;;;;5081358;28;20191;-60
2021/12/19 00:45:35;;;;;;;23.80;17.70;;;7.10;99.90;;;;;;5094438;28;20202;-59
2021/12/19 00:48:04;;;;;;;28.13;17.70;;;7.20;99.90;;;;;;5078976;28;20194;-58
2021/12/19 00:50:32;;;;;;;23.90;16.97;;;7.10;99.90;;;;;;5076451;28;20198;-58
2021/12/19 00:52:59;;;;;;;24.13;16.57;;;7.20;99.90;;;;;;5075481;28;20216;-59
2021/12/19 00:55:27;;;;;;;25.10;17.23;;;7.20;99.90;;;;;;5078254;28;20273;-59
2021/12/19 00:57:56;;;;;;;27.23;18.77;;;7.20;99.90;;;;;;5076896;28;20213;-60
2021/12/19 01:00:29;;;;;;;26.37;17.80;;;7.10;99.90;;;;;;5060608;28;20202;-60
2021/12/19 01:02:59;;;;;;;28.80;18.57;;;7.10;99.90;;;;;;5075632;28;20182;-59
2021/12/19 01:05:33;;;;;;;27.87;19.30;;;7.10;1.00;;;;;;5076627;28;20194;-60
2021/12/19 01:08:01;;;;;;;32.27;19.23;;;7.10;1.00;;;;;;5076948;28;20190;-58
2021/12/19 01:10:29;;;;;;;34.73;20.73;;;7.10;1.00;;;;;;5090934;28;20275;-61
2021/12/19 01:12:56;;;;;;;29.07;19.43;;;7.10;1.00;;;;;;5078738;28;20198;-58
2021/12/19 01:15:23;;;;;;;30.07;19.77;;;7.10;1.00;;;;;;5075521;28;20226;-59
2021/12/19 01:17:51;;;;;;;27.47;18.40;;;7.10;1.00;;;;;;5077471;28;20204;-59
2021/12/19 01:20:24;;;;;;;28.67;18.90;;;7.10;1.00;;;;;;5073408;28;20211;-61
2021/12/19 01:22:52;;;;;;;26.37;17.53;;;7.10;1.00;;;;;;5058067;28;20203;-60
2021/12/19 01:25:19;;;;;;;20.90;15.67;;;7.10;1.00;;;;;;5072301;28;20226;-59
2021/12/19 01:27:48;;;;;;;24.33;15.73;;;7.10;1.00;;;;;;5075090;28;20546;-59
2021/12/19 01:30:16;;;;;;;21.87;14.33;;;7.10;99.90;;;;;;5075657;28;20265;-59
2021/12/19 01:32:44;;;;;;;22.17;14.23;;;7.10;99.90;;;;;;5080539;28;20201;-60
2021/12/19 01:35:13;;;;;;;19.47;14.37;;;7.10;99.90;;;;;;5082405;28;20230;-59
2021/12/19 01:37:40;;;;;;;20.63;13.47;;;7.10;99.90;;;;;;5086760;28;20194;-59
2021/12/19 01:40:10;;;;;;;18.63;13.43;;;7.10;99.90;;;;;;5085240;28;20198;-58
2021/12/19 01:42:39;;;;;;;16.50;11.70;;;7.10;99.90;;;;;;5086789;28;20217;-59
2021/12/19 01:45:10;;;;;;;16.07;12.13;;;7.10;99.90;;;;;;5087384;28;20247;-59
2021/12/19 01:47:37;;;;;;;15.17;11.70;;;7.10;61.50;;;;;;5084740;28;20194;-59
2021/12/19 01:50:07;;;;;;;15.00;11.17;;;7.10;10.20;;;;;;5084530;28;20265;-59
2021/12/19 01:52:34;;;;;;;14.73;10.80;;;7.10;1.00;;;;;;5085306;28;20205;-57
2021/12/19 01:55:01;;;;;;;12.53;9.77;;;7.10;1.00;;;;;;5090346;28;20263;-58
2021/12/19 01:57:29;;;;;;;16.53;10.30;;;7.10;1.00;;;;;;5086450;28;20186;-59
2021/12/19 01:59:56;;;;;;;12.00;9.23;;;7.00;1.00;;;;;;5084666;28;20200;-59
2021/12/19 02:02:23;;;;;;;12.60;9.67;;;7.00;1.00;;;;;;5060095;28;20260;-60
2021/12/19 02:04:50;;;;;;;12.17;9.43;;;7.00;1.00;;;;;;5075306;28;20656;-60
2021/12/19 02:07:18;;;;;;;14.70;9.83;;;7.00;1.00;;;;;;5081307;28;20275;-60
2021/12/19 02:09:45;;;;;;;15.30;10.77;;;7.10;1.00;;;;;;5073834;28;20233;-60
2021/12/19 02:12:12;;;;;;;14.10;9.40;;;7.10;26.70;;;;;;5089444;28;20202;-60
2021/12/19 02:14:39;;;;;;;12.67;9.57;;;7.10;61.30;;;;;;5086229;28;20242;-58
2021/12/19 02:17:06;;;;;;;12.63;8.80;;;7.00;82.90;;;;;;5085890;28;20195;-57
2021/12/19 02:19:34;;;;;;;12.00;9.23;;;7.00;1.00;;;;;;5085201;28;20256;-57
2021/12/19 02:22:01;;;;;;;11.63;8.10;;;7.00;1.00;;;;;;5081444;28;20186;-58
2021/12/19 02:24:28;;;;;;;10.80;8.63;;;7.00;1.00;;;;;;5085347;28;20229;-58
2021/12/19 02:26:55;;;;;;;12.13;8.77;;;6.90;1.00;;;;;;5065947;28;20203;-59
2021/12/19 02:29:22;;;;;;;11.63;7.93;;;6.90;1.00;;;;;;5048092;28;20234;-59
2021/12/19 02:31:49;;;;;;;10.33;7.83;;;6.90;1.00;;;;;;5083239;28;20194;-58
2021/12/19 02:34:24;;;;;;;11.50;8.20;;;6.90;1.00;;;;;;5084094;28;20324;-59
2021/12/19 02:37:01;;;;;;;10.73;7.63;;;6.90;1.00;;;;;;5084744;28;20194;-60
2021/12/19 02:48:10;;;;;;;9.83;7.73;;;6.90;1.00;;;;;;5073666;28;20240;-60
2021/12/19 02:50:46;;;;;;;8.53;6.30;;;6.90;1.00;;;;;;5086375;28;20619;-59
2021/12/19 02:53:17;;;;;;;10.20;6.80;;;6.80;1.00;;;;;;5084068;28;20189;-58
2021/12/19 02:55:44;;;;;;;8.67;6.57;;;6.80;1.00;;;;;;5085414;28;20300;-59
2021/12/19 02:58:11;;;;;;;9.10;6.47;;;6.80;1.00;;;;;;5085768;28;20186;-59
2021/12/19 03:00:38;;;;;;;8.83;6.80;;;6.80;1.00;;;;;;5083317;28;20194;-58
2021/12/19 03:03:05;;;;;;;8.33;5.50;;;6.80;1.00;;;;;;5085280;28;20194;-58
2021/12/19 03:05:33;;;;;;;7.37;5.07;;;6.80;1.00;;;;;;5077321;28;20198;-57
2021/12/19 03:08:02;;;;;;;6.97;4.33;;;6.70;99.90;;;;;;5070591;28;20209;-57
2021/12/19 03:18:33;;;;;;;3.27;2.80;;;6.50;1.00;;;;;;5078300;28;20255;-57
2021/12/19 03:21:00;;;;;;;5.63;3.73;;;6.50;1.00;;;;;;5082981;28;20206;-57
2021/12/19 03:23:27;;;;;;;9.57;6.57;;;6.40;1.00;;;;;;5082327;28;20182;-57
2021/12/19 03:25:54;;;;;;;10.83;7.10;;;6.30;1.00;;;;;;5088103;28;20248;-58
2021/12/19 03:28:21;;;;;;;4.10;3.00;;;6.30;1.00;;;;;;5078667;28;20572;-58
2021/12/19 03:30:49;;;;;;;8.53;5.80;;;6.30;1.00;;;;;;5058603;28;20234;-57
2021/12/19 03:33:16;;;;;;;6.43;4.97;;;6.30;1.00;;;;;;5081518;28;20723;-58
2021/12/19 03:35:43;;;;;;;8.77;5.83;;;6.40;1.00;;;;;;5084523;28;20222;-58
2021/12/19 03:38:13;;;;;;;6.57;4.40;;;6.40;1.00;;;;;;5081763;28;20244;-58
2021/12/19 03:40:45;;;;;;;7.03;5.30;;;6.40;1.00;;;;;;5081695;28;20186;-57
2021/12/19 03:43:15;;;;;;;7.63;5.60;;;6.40;1.00;;;;;;5082574;28;20186;-59
2021/12/19 03:45:44;;;;;;;4.43;3.53;;;6.40;1.00;;;;;;5099193;28;20190;-58
2021/12/19 03:48:14;;;;;;;4.37;3.53;;;6.40;1.00;;;;;;5084330;28;20313;-58
2021/12/19 03:50:48;;;;;;;7.57;5.27;;;6.40;1.00;;;;;;5066338;28;20189;-57
2021/12/19 03:53:18;;;;;;;5.00;3.90;;;6.40;1.00;;;;;;5084917;28;20190;-57
2021/12/19 03:55:45;;;;;;;6.17;5.07;;;6.30;1.00;;;;;;5082614;28;20237;-57
2021/12/19 03:58:12;;;;;;;7.93;5.77;;;6.30;1.00;;;;;;5080666;28;20215;-57
2021/12/19 04:00:42;;;;;;;7.73;5.40;;;6.30;1.00;;;;;;5083453;28;20194;-57
2021/12/19 04:03:16;;;;;;;7.37;5.20;;;6.30;99.90;;;;;;5083466;28;20202;-57
2021/12/19 04:05:44;;;;;;;7.53;5.93;;;6.20;99.90;;;;;;5082926;28;20702;-57
2021/12/19 04:08:11;;;;;;;7.77;4.60;;;6.20;99.90;;;;;;5084535;28;20705;-59
2021/12/19 04:10:38;;;;;;;5.63;4.50;;;6.20;99.90;;;;;;5083178;28;20297;-57
2021/12/19 04:13:07;;;;;;;9.27;5.83;;;6.20;1.00;;;;;;5084950;28;20217;-58
2021/12/19 04:15:34;;;;;;;6.37;4.50;;;6.10;1.00;;;;;;5079432;28;20238;-57
2021/12/19 04:18:01;;;;;;;5.63;3.80;;;6.10;1.00;;;;;;5083682;28;20217;-57
2021/12/19 04:20:29;;;;;;;5.00;3.60;;;6.10;1.00;;;;;;5081206;28;20219;-58
2021/12/19 04:22:56;;;;;;;4.90;3.47;;;6.20;1.00;;;;;;5082752;28;20190;-57
2021/12/19 04:25:23;;;;;;;5.57;3.30;;;6.10;99.90;;;;;;5084316;28;20239;-58
2021/12/19 04:27:50;;;;;;;4.97;3.87;;;6.20;99.90;;;;;;5076918;28;20267;-58
2021/12/19 04:30:24;;;;;;;4.40;3.00;;;6.20;99.90;;;;;;5081893;28;20237;-58
2021/12/19 04:33:09;;;;;;;4.83;2.73;;;6.20;99.90;;;;;;5082867;28;20235;-58
2021/12/19 04:35:39;;;;;;;3.17;2.57;;;6.10;99.90;;;;;;5083949;28;20234;-57
2021/12/19 04:38:48;;;;;;;4.67;2.40;;;6.10;99.90;;;;;;5082308;28;20190;-57
2021/12/19 04:41:20;;;;;;;5.07;2.70;;;6.10;99.90;;;;;;5081666;28;20198;-58
2021/12/19 04:44:32;;;;;;;4.57;2.60;;;6.00;99.90;;;;;;5080092;28;20255;-57
2021/12/19 04:57:53;;;;;;;8.00;6.57;;;5.90;1.00;;;;;;5083313;28;20722;-58
2021/12/19 05:00:50;;;;;;;5.57;3.73;;;5.90;1.00;;;;;;5082809;28;20211;-57
2021/12/19 05:03:32;;;;;;;4.53;3.23;;;5.90;1.00;;;;;;5081673;28;20194;-58
2021/12/19 05:16:30;;;;;;;4.07;2.87;;;5.90;1.00;;;;;;5085905;28;20236;-59
2021/12/19 05:19:04;;;;;;;4.67;3.13;;;5.80;1.00;;;;;;5086373;28;20222;-58
2021/12/19 05:21:34;;;;;;;3.60;2.73;;;5.80;68.60;;;;;;5085470;28;20274;-58
2021/12/19 05:26:28;;;;;;;4.67;2.87;;;5.80;99.90;;;;;;5083885;28;20203;-58
2021/12/19 05:28:55;;;;;;;4.00;2.87;;;5.70;99.90;;;;;;5087290;28;20244;-59
2021/12/19 05:31:22;;;;;;;3.83;2.53;;;5.80;1.00;;;;;;5084190;28;20209;-59
2021/12/19 05:33:49;;;;;;;3.50;2.60;;;5.80;1.00;;;;;;5087320;28;20739;-58
2021/12/19 05:46:58;;;;;;;4.50;3.00;;;5.80;56.50;;;;;;5077950;28;20254;-59
2021/12/19 05:49:25;;;;;;;5.00;2.90;;;5.80;99.90;;;;;;5064627;28;20256;-58
2021/12/19 05:51:53;;;;;;;3.97;2.80;;;5.80;99.90;;;;;;5081564;28;20251;-57
2021/12/19 05:54:20;;;;;;;7.27;3.33;;;5.80;99.90;;;;;;5086058;28;20240;-58
2021/12/19 05:56:47;;;;;;;5.13;3.00;;;5.70;99.90;;;;;;5066120;28;20247;-58
2021/12/19 05:59:14;;;;;;;7.70;4.30;;;5.70;99.90;;;;;;5087214;28;20252;-57
2021/12/19 06:01:43;;;;;;;7.33;5.10;;;5.70;99.90;;;;;;5086296;28;20688;-57
2021/12/19 06:04:10;;;;;;;7.87;4.17;;;5.70;99.90;;;;;;5083852;28;20202;-58
2021/12/19 06:06:37;;;;;;;4.87;2.73;;;5.70;99.90;;;;;;5084959;28;20194;-57
2021/12/19 06:09:05;;;;;;;3.67;2.40;;;5.70;1.00;;;;;;5086192;28;20182;-58
2021/12/19 06:11:33;;;;;;;5.77;2.97;;;5.70;1.00;;;;;;5082519;28;20567;-58
2021/12/19 06:14:00;;;;;;;5.57;3.50;;;5.70;1.00;;;;;;5070069;28;20573;-59
2021/12/19 06:16:29;;;;;;;7.80;3.00;;;5.70;1.00;;;;;;5078184;28;20676;-59
2021/12/19 06:18:56;;;;;;;5.40;3.43;;;5.70;1.00;;;;;;5086074;28;20217;-59
2021/12/19 06:21:23;;;;;;;7.50;3.60;;;5.60;1.00;;;;;;5081805;28;20316;-58
2021/12/19 06:23:50;;;;;;;5.83;3.17;;;5.60;1.00;;;;;;5085700;28;20678;-58
2021/12/19 06:26:17;;;;;;;4.40;3.43;;;5.60;99.90;;;;;;5081096;28;20621;-59
2021/12/19 06:28:44;;;;;;;6.37;3.43;;;5.70;99.90;;;;;;5083700;28;20282;-58
2021/12/19 06:31:11;;;;;;;7.60;4.33;;;5.60;99.90;;;;;;5085288;28;20282;-58
2021/12/19 06:33:38;;;;;;;7.77;4.40;;;5.70;1.00;;;;;;5084695;28;20205;-57
2021/12/19 06:36:05;;;;;;;8.03;5.07;;;5.70;99.90;;;;;;5100536;28;20957;-58
2021/12/19 06:38:32;;;;;;;7.87;5.10;;;5.70;1.00;;;;;;5101348;28;21419;-58
2021/12/19 06:40:59;;;;;;;9.83;6.77;;;5.60;1.00;;;;;;5084254;28;20629;-57
2021/12/19 06:43:28;;;;;;;5.47;3.40;;;5.60;1.00;;;;;;5085324;28;20272;-57
2021/12/19 06:45:56;;;;;;;4.73;3.37;;;5.60;1.00;;;;;;5082387;28;20649;-57
2021/12/19 06:48:24;;;;;;;5.73;2.93;;;5.60;1.00;;;;;;5086943;28;20612;-58
2021/12/19 06:50:53;;;;;;;5.40;3.43;;;5.60;99.90;;;;;;5083375;28;20194;-58
2021/12/19 06:53:20;;;;;;;6.80;2.90;;;5.60;99.90;;;;;;5083863;28;20190;-57
2021/12/19 06:55:47;;;;;;;5.13;3.10;;;5.60;99.90;;;;;;5084274;28;20206;-57
2021/12/19 06:58:14;;;;;;;5.13;2.80;;;5.60;99.90;;;;;;5084969;28;20266;-58
2021/12/19 07:00:41;;;;;;;4.60;2.97;;;5.60;99.90;;;;;;5082160;28;20186;-58
2021/12/19 07:03:11;;;;;;;5.17;2.70;;;5.60;1.00;;;;;;5081382;28;20205;-58
2021/12/19 07:05:38;;;;;;;5.60;2.80;;;5.60;1.00;;;;;;5067844;28;20731;-58
2021/12/19 07:08:05;;;;;;;5.17;3.23;;;5.70;1.00;;;;;;5084794;28;20290;-57
2021/12/19 07:10:33;;;;;;;4.60;2.80;;;5.60;1.00;;;;;;5086943;28;20229;-58
2021/12/19 07:13:00;;;;;;;4.27;2.80;;;5.70;1.00;;;;;;5083465;28;20206;-57
2021/12/19 07:15:27;;;;;;;6.97;3.17;;;5.60;1.00;;;;;;5082916;28;20238;-58
2021/12/19 07:17:56;;;;;;;4.47;3.20;;;5.60;1.00;;;;;;5068017;28;20307;-58
2021/12/19 07:20:23;;;;;;;5.57;3.27;;;5.60;1.00;;;;;;5071877;28;20750;-58
2021/12/19 07:22:50;;;;;;;3.47;2.93;;;5.60;1.00;;;;;;5068538;28;20248;-58
2021/12/19 07:25:17;;;;;;;4.93;3.37;;;5.60;99.90;;;;;;5068839;28;20264;-56
2021/12/19 07:27:44;;;;;;;4.37;3.17;;;5.70;1.00;;;;;;5075814;28;20252;-57
2021/12/19 07:30:11;;;;;;;5.63;3.37;;;5.70;42.90;;;;;;5099236;28;20237;-57
2021/12/19 07:32:39;;;;;;;6.57;3.63;;;5.70;1.00;;;;;;5084835;28;20190;-58
2021/12/19 07:35:19;;;;;;;6.60;3.43;;;5.70;99.90;;;;;;5082253;28;20228;-58
2021/12/19 07:37:49;;;;;;;6.43;3.90;;;5.70;1.00;;;;;;5082748;28;20202;-58
2021/12/19 07:40:18;;;;;;;8.00;4.07;;;5.70;1.00;;;;;;5099348;28;20205;-57
2021/12/19 07:42:46;;;;;;;5.67;3.57;;;5.70;1.00;;;;;;5060742;28;20195;-57
2021/12/19 07:45:15;;;;;;;6.83;4.50;;;5.70;14.00;;;;;;5082893;28;20191;-57
2021/12/19 07:47:44;;;;;;;5.90;3.90;;;5.80;99.90;;;;;;5100129;28;20194;-57
2021/12/19 07:50:13;;;;;;;5.83;3.70;;;5.70;1.00;;;;;;5084114;28;20200;-57
2021/12/19 07:52:40;;;;;;;8.17;3.93;;;5.70;1.00;;;;;;5083134;28;20191;-58
2021/12/19 07:55:08;;;;;;;6.10;4.23;;;5.80;1.00;;;;;;5082031;28;20226;-58
2021/12/19 07:57:35;;;;;;;6.27;3.83;;;5.70;99.90;;;;;;5081383;28;20561;-59
2021/12/19 08:00:05;;;;;;;7.27;3.90;;;5.70;1.00;;;;;;5083045;28;20720;-58
2021/12/19 08:02:38;;;;;;;6.20;3.70;;;5.80;1.00;;;;;;5083568;28;20186;-58
2021/12/19 08:05:05;;;;;;;5.93;3.70;;;5.80;99.90;;;;;;5082778;28;20283;-57
2021/12/19 08:07:32;;;;;;;6.00;3.70;;;5.80;79.80;;;;;;5083562;28;20247;-58
2021/12/19 08:11:39;;;;;;;5.50;3.70;;;5.90;99.90;;;;;;5082994;28;20248;-57
2021/12/19 08:13:04;;;;;;;6.13;3.70;;;5.90;1.00;;;;;;5083193;28;20524;-58
2021/12/19 08:15:32;;;;;;;7.90;4.67;;;5.90;1.00;;;;;;5084310;28;20552;-57
2021/12/19 08:17:59;;;;;;;6.67;3.97;;;5.80;99.90;;;;;;5081604;28;20187;-57
2021/12/19 08:20:27;;;;;;;10.03;4.30;;;5.90;1.00;;;;;;5079575;28;20214;-57
2021/12/19 08:22:55;;;;;;;7.53;4.90;;;5.90;1.00;;;;;;5083167;28;20570;-58
2021/12/19 08:25:24;;;;;;;7.60;4.97;;;6.00;1.00;;;;;;5080839;28;20297;-57
2021/12/19 08:27:51;;;;;;;7.60;4.90;;;6.00;81.90;;;;;;5082561;28;20649;-56
2021/12/19 08:30:20;;;;;;;7.53;4.90;;;6.10;1.00;;;;;;5079905;28;20265;-57
2021/12/19 08:32:47;;;;;;;6.57;5.47;;;6.10;1.00;;;;;;5077640;28;20759;-57
2021/12/19 08:35:14;;;;;;;7.87;5.77;;;6.20;1.00;;;;;;5084121;28;20199;-57
2021/12/19 08:37:41;;;;;;;7.73;5.50;;;6.20;99.90;;;;;;5081913;28;20289;-56
2021/12/19 08:40:11;;;;;;;8.43;5.80;;;6.20;1.00;;;;;;5099701;28;20654;-57
2021/12/19 08:42:39;;;;;;;8.13;5.50;;;6.20;1.00;;;;;;5083348;28;20214;-57
2021/12/19 08:45:07;;;;;;;8.07;5.90;;;6.30;1.00;;;;;;5082539;28;20221;-58
2021/12/19 08:47:34;;;;;;;9.77;5.33;;;6.30;1.00;;;;;;5082784;28;20638;-58
2021/12/19 08:50:03;;;;;;;8.97;5.23;;;6.40;1.00;;;;;;5084956;28;20197;-58
2021/12/19 08:52:29;;;;;;;6.67;5.13;;;6.60;99.90;;;;;;5083945;28;20194;-57
2021/12/19 08:54:58;;;;;;;6.57;4.90;;;6.60;1.00;;;;;;5080777;28;20559;-57
2021/12/19 08:57:25;;;;;;;6.57;5.20;;;6.60;99.90;;;;;;5093039;28;20306;-58
2021/12/19 08:59:52;;;;;;;5.67;4.20;;;6.80;1.00;;;;;;5088129;28;20198;-58
2021/12/19 09:02:19;;;;;;;6.03;4.30;;;6.80;99.90;;;;;;5083758;28;20620;-58
2021/12/19 09:04:46;;;;;;;10.60;5.93;;;6.80;1.00;;;;;;5083736;28;20587;-60
2021/12/19 09:07:14;;;;;;;8.13;6.50;;;7.00;99.90;;;;;;5084683;28;20201;-58
2021/12/19 09:09:41;;;;;;;8.60;7.03;;;7.10;1.00;;;;;;5084774;28;20697;-59
2021/12/19 09:12:09;;;;;;;6.23;4.97;;;7.10;99.90;;;;;;5081845;28;20541;-58
2021/12/19 09:14:36;;;;;;;4.43;3.80;;;7.00;56.70;;;;;;5079599;28;20256;-57
2021/12/19 09:17:03;;;;;;;6.00;4.87;;;7.10;50.70;;;;;;5096866;28;20614;-59
2021/12/19 09:19:30;;;;;;;6.00;5.40;;;7.20;81.70;;;;;;5077666;28;20203;-58
2021/12/19 09:21:57;;;;;;;5.37;4.20;;;7.20;1.00;;;;;;5080676;28;20299;-58
2021/12/19 09:24:24;;;;;;;7.67;4.57;;;7.40;1.00;;;;;;5098510;28;20291;-59
2021/12/19 09:26:51;;;;;;;5.40;4.10;;;7.50;1.00;;;;;;5063641;28;20198;-58
2021/12/19 09:29:18;;;;;;;4.33;3.13;;;7.50;99.90;;;;;;5077948;28;20265;-60
2021/12/19 09:31:45;;;;;;;7.00;5.93;;;7.40;99.90;;;;;;5076938;28;20182;-61
2021/12/19 09:34:12;;;;;;;5.50;4.33;;;7.40;1.00;;;;;;5081645;28;20198;-60
2021/12/19 09:36:39;;;;;;;5.33;3.80;;;7.20;1.00;;;;;;5082963;28;20245;-61
2021/12/19 09:39:06;;;;;;;5.40;4.57;;;7.20;1.00;;;;;;5083253;28;20187;-59
2021/12/19 09:41:42;;;;;;;4.33;3.57;;;7.10;1.00;;;;;;5098716;28;20187;-61
2021/12/19 09:44:11;;;;;;;4.67;3.70;;;7.30;72.20;;;;;;5082820;28;20665;-60
2021/12/19 09:46:40;;;;;;;4.97;3.30;;;7.30;1.00;;;;;;5083735;28;20214;-59
2021/12/19 09:49:09;;;;;;;2.50;2.27;;;7.20;1.00;;;;;;5084145;28;20229;-58
2021/12/19 09:51:37;;;;;;;2.10;1.90;;;7.20;1.00;;;;;;5062401;28;20217;-58
2021/12/19 09:54:06;;;;;;;5.37;3.33;;;7.00;1.00;;;;;;5082801;28;20198;-58
2021/12/19 09:56:33;;;;;;;2.50;2.13;;;7.00;1.00;;;;;;5078929;28;20214;-58
2021/12/19 09:59:22;;;;;;;2.50;2.30;;;7.10;1.00;;;;;;5085368;28;20209;-58
2021/12/19 10:01:51;;;;;;;2.80;2.40;;;7.70;1.00;;;;;;5082710;28;20190;-59
2021/12/19 10:04:38;;;;;;;2.07;1.87;;;7.70;1.00;;;;;;5081948;28;20198;-60
2021/12/19 10:07:08;;;;;;;1.83;1.57;;;7.60;1.00;;;;;;5084278;28;20190;-58
2021/12/19 10:09:49;;;;;;;1.50;1.30;;;7.50;1.00;;;;;;5088093;28;20206;-59
2021/12/19 10:15:16;;;;;;;2.77;1.50;;;7.70;1.00;;;;;;5084628;28;20190;-61
2021/12/19 10:17:43;;;;;;;3.87;2.77;;;7.80;99.90;;;;;;5083809;28;20202;-60
2021/12/19 10:20:13;;;;;;;1.93;1.63;;;7.70;99.90;;;;;;5082909;28;20238;-60
2021/12/19 10:22:46;;;;;;;2.73;2.23;;;7.70;99.90;;;;;;5085625;28;20194;-58
2021/12/19 10:25:19;;;;;;;5.27;3.77;;;7.40;99.90;;;;;;5103436;28;20220;-58
2021/12/19 10:27:51;;;;;;;11.27;6.50;;;7.30;1.00;;;;;;5088550;28;20239;-58
2021/12/19 10:30:31;;;;;;;10.87;6.67;;;7.20;1.00;;;;;;5086791;28;20254;-59
2021/12/19 10:33:00;;;;;;;7.80;4.60;;;7.20;99.90;;;;;;5085742;28;20229;-58
2021/12/19 10:35:32;;;;;;;18.07;9.80;;;7.20;99.90;;;;;;5086787;28;20237;-59
2021/12/19 10:38:02;;;;;;;13.13;6.93;;;7.20;99.90;;;;;;5084664;28;20194;-59
2021/12/19 10:40:30;;;;;;;21.97;9.50;;;7.20;94.60;;;;;;5061188;28;20202;-59
2021/12/19 10:43:01;;;;;;;11.60;5.40;;;7.30;1.20;;;;;;5097561;28;20198;-59
2021/12/19 10:45:35;;;;;;;5.07;3.80;;;7.30;1.00;;;;;;5083840;28;20213;-60
2021/12/19 10:48:26;;;;;;;6.13;4.37;;;7.30;1.00;;;;;;5084401;28;20189;-59
2021/12/19 10:50:58;;;;;;;9.33;5.17;;;7.50;83.40;;;;;;5085326;28;20190;-60
2021/12/19 10:53:30;;;;;;;2.50;1.83;;;7.50;1.00;;;;;;5085775;28;20719;-61
2021/12/19 10:55:58;;;;;;;2.13;1.73;;;7.50;1.00;;;;;;5098028;28;20791;-60
2021/12/19 10:58:31;;;;;;;2.40;1.93;;;7.50;1.00;;;;;;5078316;28;20287;-60
2021/12/19 11:01:14;;;;;;;2.00;1.80;;;7.40;1.00;;;;;;5075216;28;20682;-60
2021/12/19 11:03:43;;;;;;;2.00;1.63;;;7.40;1.00;;;;;;5071823;28;20190;-60
2021/12/19 11:06:14;;;;;;;3.50;2.00;;;7.30;1.00;;;;;;5081560;28;21510;-61
2021/12/19 11:08:43;;;;;;;2.00;1.80;;;7.30;1.00;;;;;;5078845;28;20607;-60
2021/12/19 11:11:11;;;;;;;2.40;1.70;;;7.30;9.70;;;;;;5082127;28;20219;-59
2021/12/19 11:13:38;;;;;;;1.60;1.50;;;7.20;9.60;;;;;;5083413;28;20207;-59
2021/12/19 11:16:05;;;;;;;1.57;1.40;;;7.30;91.80;;;;;;5080081;28;20215;-60
2021/12/19 11:18:33;;;;;;;1.43;1.33;;;7.20;99.90;;;;;;5080512;28;20195;-58
2021/12/19 11:21:00;;;;;;;2.10;1.50;;;7.20;1.00;;;;;;5083870;28;20267;-57
2021/12/19 11:23:27;;;;;;;3.30;1.27;;;7.10;1.00;;;;;;5081589;28;20243;-57
2021/12/19 11:25:59;;;;;;;1.80;1.50;;;7.10;1.00;;;;;;5064845;28;20186;-58
2021/12/19 11:28:29;;;;;;;1.87;1.30;;;7.10;1.00;;;;;;5071298;28;20194;-58
2021/12/19 11:30:57;;;;;;;2.33;1.67;;;7.10;1.00;;;;;;5054344;28;20241;-60
2021/12/19 11:33:49;;;;;;;2.70;1.70;;;7.10;1.00;;;;;;5070663;28;20190;-58
2021/12/19 11:36:19;;;;;;;2.00;1.40;;;7.10;1.00;;;;;;5073263;28;20280;-59
2021/12/19 11:38:47;;;;;;;2.77;2.10;;;7.20;1.00;;;;;;5067708;28;21170;-58
2021/12/19 11:41:15;;;;;;;2.33;2.13;;;7.20;1.00;;;;;;5051144;28;20796;-60
2021/12/19 11:43:45;;;;;;;3.17;2.50;;;7.10;1.00;;;;;;5082359;28;20209;-57
2021/12/19 11:46:19;;;;;;;3.47;2.40;;;7.10;1.00;;;;;;5078749;28;20201;-57
2021/12/19 11:49:11;;;;;;;3.13;2.67;;;7.00;1.00;;;;;;5079218;28;20182;-59
2021/12/19 11:51:39;;;;;;;3.60;2.60;;;7.10;1.00;;;;;;5079337;28;20504;-59
2021/12/19 11:54:18;;;;;;;5.50;2.27;;;7.10;1.00;;;;;;5078819;28;20209;-58
2021/12/19 11:57:20;;;;;;;3.30;2.10;;;7.10;1.00;;;;;;5080212;28;20234;-58
2021/12/19 11:59:48;;;;;;;3.00;2.37;;;7.10;27.00;;;;;;5080099;28;20205;-58
2021/12/19 12:02:27;;;;;;;3.97;2.70;;;7.10;99.90;;;;;;5082328;28;21143;-58
2021/12/19 12:05:25;;;;;;;4.90;2.83;;;7.00;93.60;;;;;;5095542;28;20189;-58
2021/12/19 12:08:06;;;;;;;3.83;3.10;;;7.00;99.90;;;;;;5077081;28;20206;-58
2021/12/19 12:13:36;;;;;;;4.90;3.03;;;7.10;99.90;;;;;;5081208;28;20198;-58
2021/12/19 12:16:23;;;;;;;5.47;3.70;;;7.10;99.90;;;;;;5096485;28;20277;-59
2021/12/19 12:18:57;;;;;;;7.20;3.87;;;7.10;99.90;;;;;;5078676;28;20550;-58
2021/12/19 12:21:31;;;;;;;7.13;4.37;;;7.20;99.90;;;;;;5067607;28;20223;-58
2021/12/19 12:24:17;;;;;;;6.53;4.00;;;7.20;99.90;;;;;;5081854;28;20199;-58
2021/12/19 12:27:04;;;;;;;5.70;3.60;;;7.20;99.90;;;;;;5085436;28;20229;-60
2021/12/19 12:29:32;;;;;;;5.63;4.23;;;7.20;99.90;;;;;;5077884;28;20681;-58
2021/12/19 12:31:59;;;;;;;4.90;3.80;;;7.10;99.90;;;;;;5099703;28;20202;-58
2021/12/19 12:34:27;;;;;;;4.87;3.70;;;7.20;99.90;;;;;;5071863;28;20198;-57
2021/12/19 12:36:54;;;;;;;7.07;4.30;;;7.20;99.90;;;;;;5070121;28;21382;-58
2021/12/19 12:39:27;;;;;;;5.40;4.27;;;7.20;99.90;;;;;;5080605;28;20740;-59
2021/12/19 12:42:03;;;;;;;6.20;4.03;;;7.20;99.90;;;;;;5080589;28;20866;-58
2021/12/19 12:44:30;;;;;;;5.83;4.83;;;7.20;99.90;;;;;;5077328;28;20322;-59
2021/12/19 12:46:59;;;;;;;9.10;5.30;;;7.20;99.90;;;;;;5096745;28;20244;-59
2021/12/19 12:49:29;;;;;;;7.50;4.10;;;7.20;99.90;;;;;;5083464;28;21149;-59
2021/12/19 12:51:56;;;;;;;9.20;4.70;;;7.10;99.90;;;;;;5083610;28;20210;-58
2021/12/19 12:54:35;;;;;;;7.27;4.47;;;7.10;99.90;;;;;;5082632;28;20664;-58
2021/12/19 12:57:11;;;;;;;7.63;5.83;;;7.10;1.00;;;;;;5081692;28;20742;-58
2021/12/19 12:59:41;;;;;;;8.67;6.33;;;7.10;1.00;;;;;;5098179;28;20198;-58
2021/12/19 13:02:19;;;;;;;5.10;4.60;;;7.10;99.90;;;;;;5080330;28;20555;-60
2021/12/19 13:04:48;;;;;;;7.83;5.73;;;7.20;1.00;;;;;;5082223;28;20564;-60
2021/12/19 13:07:24;;;;;;;10.90;5.10;;;7.10;99.90;;;;;;5081709;28;20202;-59
2021/12/19 13:09:54;;;;;;;5.93;5.07;;;7.20;99.90;;;;;;5097660;28;20247;-59
2021/12/19 13:12:27;;;;;;;8.93;6.20;;;7.20;99.90;;;;;;5082608;28;20199;-59
2021/12/19 13:14:58;;;;;;;8.13;7.33;;;7.20;99.90;;;;;;5081568;28;20709;-58
2021/12/19 13:17:33;;;;;;;6.50;4.80;;;7.20;1.00;;;;;;5083457;28;20277;-59
2021/12/19 13:20:14;;;;;;;6.93;5.73;;;7.20;99.90;;;;;;5082891;28;20205;-59
2021/12/19 13:22:51;;;;;;;6.73;4.63;;;7.20;99.90;;;;;;5084126;28;20255;-59
2021/12/19 13:25:25;;;;;;;10.27;4.50;;;7.20;99.90;;;;;;5091339;28;20198;-58
2021/12/19 13:27:55;;;;;;;6.20;4.40;;;7.20;99.90;;;;;;5080227;28;20186;-57
2021/12/19 13:30:31;;;;;;;9.00;5.00;;;7.20;99.90;;;;;;5082455;28;20740;-58
2021/12/19 13:33:05;;;;;;;7.93;4.50;;;7.20;99.90;;;;;;5084381;28;20718;-57
2021/12/19 13:35:35;;;;;;;8.73;4.83;;;7.20;99.90;;;;;;5083861;28;20252;-58
2021/12/19 13:38:09;;;;;;;8.37;4.93;;;7.20;99.90;;;;;;5086409;28;20241;-59
2021/12/19 13:40:38;;;;;;;8.30;4.57;;;7.30;1.00;;;;;;5071785;28;20677;-59
2021/12/19 13:43:12;;;;;;;4.70;4.20;;;7.30;1.00;;;;;;5071054;28;20787;-58
2021/12/19 13:45:43;;;;;;;7.17;4.60;;;7.30;1.00;;;;;;5072980;28;20203;-59
2021/12/19 13:48:20;;;;;;;6.00;4.70;;;7.20;1.00;;;;;;5075632;28;20206;-59
2021/12/19 13:50:52;;;;;;;8.60;4.97;;;7.20;1.00;;;;;;5084070;28;20194;-58
2021/12/19 13:53:19;;;;;;;8.13;5.17;;;7.10;1.00;;;;;;5101656;28;20206;-58
2021/12/19 13:56:10;;;;;;;6.43;4.37;;;7.10;1.00;;;;;;5081573;28;20233;-59
2021/12/19 13:58:43;;;;;;;9.67;4.37;;;7.10;1.00;;;;;;5085337;28;20221;-60
2021/12/19 14:01:22;;;;;;;6.97;4.63;;;7.10;1.00;;;;;;5067519;28;20545;-60
2021/12/19 14:03:59;;;;;;;5.40;3.83;;;7.10;1.00;;;;;;5082147;28;21134;-60
2021/12/19 14:06:36;;;;;;;8.40;4.87;;;7.10;19.40;;;;;;5085029;28;20263;-60
2021/12/19 14:09:07;;;;;;;6.77;4.57;;;7.10;85.20;;;;;;5078951;28;20186;-59
2021/12/19 14:11:36;;;;;;;9.07;4.93;;;7.00;99.90;;;;;;5074879;28;20190;-60
2021/12/19 14:14:09;;;;;;;6.97;4.90;;;7.00;99.90;;;;;;5098804;28;20709;-60
2021/12/19 14:16:39;;;;;;;8.73;6.23;;;7.00;99.90;;;;;;5082477;28;20222;-58
2021/12/19 14:19:27;;;;;;;10.40;5.27;;;7.00;99.90;;;;;;5082378;28;20182;-59
2021/12/19 14:21:57;;;;;;;9.67;5.90;;;7.00;1.00;;;;;;5084717;28;20245;-58